createdAt,value
2022-11-24T00:00:15.388Z,43.5
2022-11-24T00:05:15.381Z,43.3
2022-11-24T00:10:15.393Z,43.1
2022-11-24T00:15:15.390Z,42.8
2022-11-24T00:20:15.412Z,42.7
2022-11-24T00:25:15.469Z,42.5
2022-11-24T00:30:15.416Z,42.3
2022-11-24T00:35:15.482Z,42.1
2022-11-24T00:40:15.628Z,42.1
2022-11-24T00:45:15.483Z,42.0
2022-11-24T00:50:15.514Z,41.8
2022-11-24T00:55:15.524Z,41.7
2022-11-24T01:00:15.509Z,41.7
2022-11-24T01:05:15.456Z,41.6
2022-11-24T01:10:15.520Z,41.5
2022-11-24T01:15:15.575Z,41.4
2022-11-24T01:20:15.694Z,41.3
2022-11-24T01:25:15.554Z,41.2
2022-11-24T01:30:15.612Z,41.2
2022-11-24T01:35:15.623Z,41.3
2022-11-24T01:40:15.764Z,41.2
2022-11-24T01:45:15.748Z,41.1
2022-11-24T01:50:15.769Z,41.1
2022-11-24T01:55:15.539Z,41.0
2022-11-24T02:00:15.753Z,41.0
2022-11-24T02:05:15.594Z,40.9
2022-11-24T02:10:15.668Z,40.9
2022-11-24T02:15:15.696Z,40.8
2022-11-24T02:20:15.682Z,40.8
2022-11-24T02:25:15.766Z,40.8
2022-11-24T02:30:15.692Z,40.7
2022-11-24T02:35:15.821Z,40.6
2022-11-24T02:40:15.975Z,40.6
2022-11-24T02:45:15.694Z,40.6
2022-11-24T02:50:15.968Z,40.6
2022-11-24T02:55:16.922Z,40.6
2022-11-24T03:00:16.783Z,40.6
2022-11-24T03:05:16.886Z,40.5
2022-11-24T03:10:16.821Z,40.4
2022-11-24T03:15:16.784Z,40.2
2022-11-24T03:20:16.975Z,40.1
2022-11-24T03:25:16.871Z,40.0
2022-11-24T03:30:16.858Z,40.0
2022-11-24T03:35:16.833Z,40.1
2022-11-24T03:40:16.824Z,40.0
2022-11-24T03:45:44.328Z,40.0
2022-11-24T03:50:16.896Z,40.0
2022-11-24T03:55:16.861Z,40.0
2022-11-24T04:00:16.956Z,40.0
2022-11-24T04:05:16.936Z,39.9
2022-11-24T04:10:16.922Z,39.7
2022-11-24T04:15:17.078Z,39.7
2022-11-24T04:20:16.949Z,39.8
2022-11-24T04:25:17.018Z,39.7
2022-11-24T04:30:16.959Z,39.5
2022-11-24T04:35:16.994Z,39.4
2022-11-24T04:40:17.097Z,39.3
2022-11-24T04:45:17.100Z,39.2
2022-11-24T04:50:17.131Z,39.1
2022-11-24T04:55:17.082Z,39.1
2022-11-24T05:00:16.018Z,39.1
2022-11-24T05:05:16.073Z,39.1
2022-11-24T05:10:16.058Z,39.1
2022-11-24T05:15:16.085Z,39.1
2022-11-24T05:20:16.087Z,39.1
2022-11-24T05:25:16.144Z,38.9
2022-11-24T05:30:16.178Z,38.8
2022-11-24T05:35:16.216Z,38.7
2022-11-24T05:40:16.167Z,38.6
2022-11-24T05:45:16.149Z,38.5
2022-11-24T05:50:16.200Z,38.4
2022-11-24T05:55:16.113Z,38.3
2022-11-24T06:00:16.162Z,38.2
2022-11-24T06:05:16.187Z,38.2
2022-11-24T06:10:16.123Z,38.1
2022-11-24T06:15:16.374Z,38.0
2022-11-24T06:20:16.265Z,37.9
2022-11-24T06:25:16.253Z,37.9
2022-11-24T06:30:16.230Z,37.8
2022-11-24T06:35:16.308Z,37.8
2022-11-24T06:40:16.327Z,37.8
2022-11-24T06:45:16.501Z,37.7
2022-11-24T06:50:16.367Z,37.7
2022-11-24T06:55:17.911Z,37.7
2022-11-24T07:00:17.357Z,37.7
2022-11-24T07:05:17.363Z,37.6
2022-11-24T07:10:17.331Z,37.7
2022-11-24T07:15:17.352Z,37.8
2022-11-24T07:20:17.495Z,38.0
2022-11-24T07:25:17.310Z,37.9
2022-11-24T07:30:15.611Z,37.9
2022-11-24T07:35:15.372Z,37.9
2022-11-24T07:40:15.519Z,37.9
2022-11-24T07:45:15.437Z,37.7
2022-11-24T07:50:15.528Z,37.6
2022-11-24T07:55:15.368Z,37.5
2022-11-24T08:00:15.409Z,37.4
2022-11-24T08:05:15.415Z,37.3
2022-11-24T08:10:15.467Z,37.2
2022-11-24T08:15:15.484Z,37.1
2022-11-24T08:20:15.697Z,37.1
2022-11-24T08:25:15.600Z,37.1
2022-11-24T08:30:15.525Z,37.1
2022-11-24T08:35:15.585Z,37.1
2022-11-24T08:40:15.610Z,37.1
2022-11-24T08:45:20.846Z,37.0
2022-11-24T08:50:15.614Z,36.9
2022-11-24T08:55:15.524Z,36.9
2022-11-24T09:00:15.579Z,36.8
2022-11-24T09:05:43.680Z,36.8
2022-11-24T09:10:15.608Z,36.6
2022-11-24T09:15:15.618Z,36.6
2022-11-24T09:20:15.580Z,36.4
2022-11-24T09:25:15.824Z,36.2
2022-11-24T09:30:15.774Z,36.0
2022-11-24T09:35:15.664Z,35.9
2022-11-24T09:40:15.726Z,35.9
2022-11-24T09:45:15.666Z,35.8
2022-11-24T09:50:15.721Z,35.9
2022-11-24T09:55:15.598Z,35.8
2022-11-24T10:00:15.959Z,35.8
2022-11-24T10:05:15.692Z,35.7
2022-11-24T10:10:21.180Z,35.7
2022-11-24T10:15:15.946Z,35.6
2022-11-24T10:20:15.749Z,35.5
2022-11-24T10:25:16.005Z,35.5
2022-11-24T10:30:15.950Z,35.1
2022-11-24T10:35:15.779Z,35.0
2022-11-24T10:40:33.372Z,34.7
2022-11-24T10:45:15.772Z,34.4
2022-11-24T10:50:15.931Z,34.2
2022-11-24T10:55:15.866Z,33.9
2022-11-24T11:00:15.946Z,33.5
2022-11-24T11:05:15.837Z,33.3
2022-11-24T11:10:15.943Z,33.1
2022-11-24T11:15:15.834Z,32.8
2022-11-24T11:20:15.928Z,32.6
2022-11-24T11:25:15.899Z,32.3
2022-11-24T11:31:27.026Z,32.1
2022-11-24T11:35:15.963Z,32.0
2022-11-24T11:40:15.938Z,31.9
2022-11-24T11:45:16.175Z,31.9
2022-11-24T11:50:16.017Z,31.8
2022-11-24T11:55:15.945Z,31.7
2022-11-24T12:00:16.126Z,31.5
2022-11-24T12:05:15.953Z,31.3
2022-11-24T12:10:16.117Z,31.1
2022-11-24T12:15:15.947Z,31.2
2022-11-24T12:20:15.971Z,31.3
2022-11-24T12:25:16.069Z,31.4
2022-11-24T12:30:16.039Z,31.5
2022-11-24T12:35:16.089Z,31.6
2022-11-24T12:40:16.107Z,31.9
2022-11-24T12:45:16.065Z,32.1
2022-11-24T12:50:16.043Z,32.5
2022-11-24T12:55:16.233Z,32.9
2022-11-24T13:00:16.089Z,33.2
2022-11-24T13:05:16.199Z,33.5
2022-11-24T13:10:16.126Z,33.8
2022-11-24T13:15:43.456Z,34.2
2022-11-24T13:20:16.106Z,34.5
2022-11-24T13:25:16.282Z,34.8
2022-11-24T13:30:16.187Z,35.1
2022-11-24T13:35:16.124Z,35.4
2022-11-24T13:40:16.210Z,35.7
2022-11-24T13:45:16.291Z,36.0
2022-11-24T13:50:16.676Z,36.1
2022-11-24T13:55:16.326Z,36.4
2022-11-24T14:00:16.281Z,36.5
2022-11-24T14:05:16.363Z,36.8
2022-11-24T14:10:16.331Z,37.1
2022-11-24T14:15:16.304Z,37.3
2022-11-24T14:20:16.249Z,37.5
2022-11-24T14:25:16.403Z,37.8
2022-11-24T14:30:16.328Z,38.0
2022-11-24T14:35:16.509Z,38.3
2022-11-24T14:40:16.266Z,38.5
2022-11-24T14:45:16.300Z,38.8
2022-11-24T14:50:16.504Z,39.1
2022-11-24T14:55:22.726Z,39.1
2022-11-24T15:00:16.535Z,39.2
2022-11-24T15:05:16.372Z,39.3
2022-11-24T15:10:16.366Z,39.3
2022-11-24T15:15:16.442Z,39.2
2022-11-24T15:20:16.486Z,39.4
2022-11-24T15:25:16.477Z,39.7
2022-11-24T15:30:16.471Z,40.0
2022-11-24T15:35:16.453Z,40.3
2022-11-24T15:40:16.469Z,40.8
2022-11-24T15:45:16.446Z,41.3
2022-11-24T15:50:16.608Z,41.4
2022-11-24T15:55:16.546Z,41.7
2022-11-24T16:00:16.516Z,41.8
2022-11-24T16:05:16.600Z,42.6
2022-11-24T16:10:16.530Z,42.9
2022-11-24T16:15:16.655Z,42.5
2022-11-24T16:20:16.536Z,42.3
2022-11-24T16:25:16.543Z,42.2
2022-11-24T16:30:16.585Z,42.4
2022-11-24T16:35:16.568Z,43.0
2022-11-24T16:40:16.597Z,43.3
2022-11-24T16:45:16.709Z,43.5
2022-11-24T16:50:16.618Z,44.1
2022-11-24T16:55:16.622Z,44.4
2022-11-24T17:00:16.677Z,44.7
2022-11-24T17:05:16.649Z,45.1
2022-11-24T17:10:16.643Z,45.2
2022-11-24T17:15:32.766Z,45.2
2022-11-24T17:20:16.855Z,45.5
2022-11-24T17:25:16.786Z,45.8
2022-11-24T17:30:16.768Z,45.7
2022-11-24T17:35:16.790Z,45.6
2022-11-24T17:40:32.137Z,45.4
2022-11-24T17:45:16.760Z,45.2
2022-11-24T17:50:20.131Z,45.2
2022-11-24T17:55:16.691Z,45.2
2022-11-24T18:00:16.803Z,45.2
2022-11-24T18:05:16.754Z,45.2
2022-11-24T18:10:16.828Z,45.2
2022-11-24T18:15:16.994Z,45.1
2022-11-24T18:20:17.197Z,45.3
2022-11-24T18:25:16.870Z,45.4
2022-11-24T18:30:16.937Z,45.3
2022-11-24T18:35:16.983Z,45.4
2022-11-24T18:40:16.875Z,45.5
2022-11-24T18:45:16.789Z,45.4
2022-11-24T18:50:16.945Z,45.6
2022-11-24T18:55:16.954Z,45.7
2022-11-24T19:00:17.079Z,45.8
2022-11-24T19:05:16.936Z,45.7
2022-11-24T19:10:16.996Z,45.6
2022-11-24T19:15:16.955Z,45.6
2022-11-24T19:20:17.023Z,45.6
2022-11-24T19:25:17.040Z,45.8
2022-11-24T19:30:16.939Z,45.9
2022-11-24T19:35:17.082Z,46.0
2022-11-24T19:40:17.063Z,46.1
2022-11-24T19:45:17.123Z,46.1
2022-11-24T19:50:17.076Z,45.9
2022-11-24T19:55:17.246Z,45.4
2022-11-24T20:00:17.121Z,45.0
2022-11-24T20:05:17.014Z,44.8
2022-11-24T20:10:17.141Z,44.9
2022-11-24T20:15:17.162Z,44.7
2022-11-24T20:20:17.190Z,44.4
2022-11-24T20:25:17.157Z,44.3
2022-11-24T20:30:17.148Z,44.2
2022-11-24T20:35:18.479Z,44.2
2022-11-24T20:40:17.173Z,44.1
2022-11-24T20:45:17.191Z,44.0
2022-11-24T20:50:17.251Z,43.8
2022-11-24T20:55:17.320Z,43.6
2022-11-24T21:00:17.273Z,43.6
2022-11-24T21:05:17.229Z,43.4
2022-11-24T21:10:17.330Z,43.3
2022-11-24T21:15:17.305Z,43.1
2022-11-24T21:20:17.288Z,42.9
2022-11-24T21:25:17.248Z,42.8
2022-11-24T21:30:17.421Z,42.7
2022-11-24T21:35:17.351Z,42.7
2022-11-24T21:40:17.249Z,42.5
2022-11-24T21:45:17.286Z,42.4
2022-11-24T21:50:17.268Z,42.3
2022-11-24T21:55:17.572Z,42.1
2022-11-24T22:00:17.255Z,42.0
2022-11-24T22:05:17.390Z,41.8
2022-11-24T22:10:17.345Z,41.5
2022-11-24T22:15:17.342Z,41.4
2022-11-24T22:20:17.374Z,41.5
2022-11-24T22:25:15.373Z,41.6
2022-11-24T22:30:15.376Z,41.5
2022-11-24T22:35:15.376Z,41.5
2022-11-24T22:40:15.655Z,41.3
2022-11-24T22:45:15.423Z,40.9
2022-11-24T22:50:15.474Z,40.7
2022-11-24T22:55:15.447Z,40.7
2022-11-24T23:00:15.535Z,40.6
2022-11-24T23:05:20.498Z,40.6
2022-11-24T23:10:15.705Z,40.8
2022-11-24T23:15:15.555Z,41.2
2022-11-24T23:20:15.699Z,41.4
2022-11-24T23:25:15.529Z,41.6
2022-11-24T23:30:15.556Z,41.9
2022-11-24T23:35:15.708Z,42.1
2022-11-24T23:40:15.584Z,42.2
2022-11-24T23:45:15.587Z,42.3
2022-11-24T23:50:15.571Z,42.4
2022-11-24T23:55:18.730Z,42.4
